Time;durP1;ratioP1;P1;durP2;ratioP2;P2;SDS_P1;SDS_P2;PMS_P1;PMS_P2;Temp;Humidity;BMP_temperature;BMP_pressure;BME280_temperature;BME280_humidity;BME280_pressure;Samples;Min_cycle;Max_cycle;Signal;HPM_P1;HPM_P2
2023/08/28 00:00:29;;;;;;;0.00;0.00;;;;;;;;;;1035423;28;20389;-73
2023/08/28 00:01:00;;;;;;;0.75;0.75;;;;;;;;;;1036480;28;20513;-73
2023/08/28 00:01:30;;;;;;;0.00;0.00;;;;;;;;;;1043996;28;20120;-73
2023/08/28 00:02:01;;;;;;;0.65;0.60;;;;;;;;;;1043766;28;20179;-73
2023/08/28 00:02:32;;;;;;;4.55;1.90;;;;;;;;;;1043816;28;20029;-74
2023/08/28 00:03:02;;;;;;;0.10;0.10;;;;;;;;;;1039565;28;20068;-74
2023/08/28 00:03:33;;;;;;;0.10;0.10;;;;;;;;;;1039984;28;20433;-74
2023/08/28 00:04:03;;;;;;;0.25;0.25;;;;;;;;;;1039645;28;20040;-74
2023/08/28 00:04:34;;;;;;;0.00;0.00;;;;;;;;;;1039956;28;20465;-74
2023/08/28 00:05:04;;;;;;;0.05;0.05;;;;;;;;;;1036961;28;20026;-73
2023/08/28 00:05:35;;;;;;;0.68;0.68;;;;;;;;;;1036224;28;20465;-73
2023/08/28 00:06:05;;;;;;;0.10;0.10;;;;;;;;;;1035858;28;20026;-73
2023/08/28 00:06:36;;;;;;;0.35;0.17;;;;;;;;;;1036043;28;20061;-73
2023/08/28 00:07:06;;;;;;;0.35;0.35;;;;;;;;;;1035800;28;20033;-73
2023/08/28 00:07:37;;;;;;;0.08;0.08;;;;;;;;;;1036058;28;20036;-73
2023/08/28 00:08:07;;;;;;;0.00;0.00;;;;;;;;;;1036013;28;20022;-73
2023/08/28 00:08:38;;;;;;;0.00;0.00;;;;;;;;;;1036138;28;20038;-73
2023/08/28 00:09:08;;;;;;;0.20;0.20;;;;;;;;;;1039410;28;20541;-73
2023/08/28 00:09:39;;;;;;;0.00;0.00;;;;;;;;;;1039995;28;20127;-73
2023/08/28 00:10:10;;;;;;;0.75;0.75;;;;;;;;;;1039652;28;20091;-73
2023/08/28 00:10:40;;;;;;;0.00;0.00;;;;;;;;;;1039867;28;20104;-73
2023/08/28 00:11:11;;;;;;;0.10;0.10;;;;;;;;;;1035710;28;20179;-73
2023/08/28 00:11:41;;;;;;;0.73;0.73;;;;;;;;;;1036132;28;20029;-73
2023/08/28 00:12:12;;;;;;;1.35;1.25;;;;;;;;;;1038932;28;20536;-73
2023/08/28 00:12:43;;;;;;;0.10;0.10;;;;;;;;;;1039586;28;20391;-74
2023/08/28 00:13:13;;;;;;;3.42;1.23;;;;;;;;;;1038620;28;20034;-75
2023/08/28 00:13:44;;;;;;;1.80;1.65;;;;;;;;;;1031668;28;20402;-74
2023/08/28 00:14:15;;;;;;;0.03;0.03;;;;;;;;;;1031863;28;20071;-73
2023/08/28 00:14:45;;;;;;;0.22;0.22;;;;;;;;;;1032027;28;20030;-73
2023/08/28 00:15:15;;;;;;;0.05;0.05;;;;;;;;;;1031955;28;20376;-74
2023/08/28 00:15:46;;;;;;;0.93;0.65;;;;;;;;;;1031965;28;20387;-74
2023/08/28 00:16:16;;;;;;;0.10;0.10;;;;;;;;;;1035965;28;20049;-73
2023/08/28 00:16:47;;;;;;;0.10;0.05;;;;;;;;;;1036119;28;20394;-73
2023/08/28 00:17:17;;;;;;;1.25;0.63;;;;;;;;;;1035941;28;20406;-73
2023/08/28 00:17:48;;;;;;;0.22;0.22;;;;;;;;;;1035987;28;20068;-73
2023/08/28 00:18:19;;;;;;;1.90;1.27;;;;;;;;;;1036004;28;20026;-73
2023/08/28 00:18:49;;;;;;;0.00;0.00;;;;;;;;;;1035923;28;20124;-73
2023/08/28 00:19:20;;;;;;;0.00;0.00;;;;;;;;;;1035798;28;20082;-73
2023/08/28 00:19:50;;;;;;;0.15;0.15;;;;;;;;;;1039739;28;20030;-73
2023/08/28 00:20:21;;;;;;;0.55;0.55;;;;;;;;;;1039774;28;20465;-73
2023/08/28 00:20:51;;;;;;;0.00;0.00;;;;;;;;;;1039575;28;20428;-73
2023/08/28 00:21:22;;;;;;;3.40;1.95;;;;;;;;;;1039555;28;20371;-73
2023/08/28 00:21:52;;;;;;;0.38;0.38;;;;;;;;;;1035760;28;20088;-73
2023/08/28 00:22:23;;;;;;;0.00;0.00;;;;;;;;;;1035657;28;20545;-73
2023/08/28 00:22:53;;;;;;;0.00;0.00;;;;;;;;;;1035670;28;20470;-74
2023/08/28 00:23:24;;;;;;;0.00;0.00;;;;;;;;;;1039730;28;20076;-73
2023/08/28 00:23:54;;;;;;;0.50;0.50;;;;;;;;;;1039844;28;20544;-74
2023/08/28 00:24:24;;;;;;;0.00;0.00;;;;;;;;;;1039691;28;20112;-75
2023/08/28 00:24:55;;;;;;;0.10;0.10;;;;;;;;;;1035873;28;20037;-74
2023/08/28 00:25:25;;;;;;;1.17;1.08;;;;;;;;;;1035930;28;20506;-74
2023/08/28 00:25:56;;;;;;;0.00;0.00;;;;;;;;;;1035969;28;20514;-73
2023/08/28 00:26:26;;;;;;;0.93;0.77;;;;;;;;;;1036061;28;20521;-74
2023/08/28 00:26:57;;;;;;;0.20;0.20;;;;;;;;;;1036061;28;20041;-74
2023/08/28 00:27:27;;;;;;;0.17;0.10;;;;;;;;;;1035790;28;20021;-73
2023/08/28 00:27:57;;;;;;;0.63;0.22;;;;;;;;;;1035561;28;20124;-74
2023/08/28 00:28:28;;;;;;;0.05;0.05;;;;;;;;;;1035852;28;20033;-74
2023/08/28 00:28:58;;;;;;;0.22;0.22;;;;;;;;;;1034606;28;20148;-74
2023/08/28 00:29:29;;;;;;;6.05;0.68;;;;;;;;;;1035601;28;20026;-74
2023/08/28 00:29:59;;;;;;;0.38;0.38;;;;;;;;;;1035647;28;20478;-73
2023/08/28 00:30:30;;;;;;;0.25;0.25;;;;;;;;;;1036646;28;20402;-74
2023/08/28 00:31:02;;;;;;;0.15;0.15;;;;;;;;;;1040448;28;20123;-73
2023/08/28 00:31:33;;;;;;;0.40;0.40;;;;;;;;;;1042474;28;20428;-74
2023/08/28 00:32:03;;;;;;;1.23;1.15;;;;;;;;;;1043302;28;20021;-73
2023/08/28 00:32:34;;;;;;;1.55;0.52;;;;;;;;;;1043097;28;20469;-73
2023/08/28 00:33:04;;;;;;;0.40;0.40;;;;;;;;;;1039645;28;20029;-74
2023/08/28 00:33:35;;;;;;;0.00;0.00;;;;;;;;;;1039929;28;20021;-73
2023/08/28 00:34:05;;;;;;;2.10;1.98;;;;;;;;;;1039509;28;20116;-73
2023/08/28 00:34:36;;;;;;;0.40;0.40;;;;;;;;;;1039795;28;20154;-73
2023/08/28 00:35:06;;;;;;;0.10;0.10;;;;;;;;;;1039609;28;20022;-73
2023/08/28 00:35:37;;;;;;;4.88;1.50;;;;;;;;;;1037575;28;20025;-74
2023/08/28 00:36:07;;;;;;;0.10;0.10;;;;;;;;;;1039398;28;20021;-74
2023/08/28 00:36:38;;;;;;;0.10;0.10;;;;;;;;;;1039707;28;20037;-74
2023/08/28 00:37:08;;;;;;;7.85;1.75;;;;;;;;;;1039520;28;20025;-74
2023/08/28 00:37:39;;;;;;;0.55;0.43;;;;;;;;;;1042607;28;20083;-73
2023/08/28 00:38:10;;;;;;;0.00;0.00;;;;;;;;;;1039300;28;20037;-73
2023/08/28 00:38:40;;;;;;;1.30;1.20;;;;;;;;;;1039839;28;20022;-73
2023/08/28 00:39:10;;;;;;;0.90;0.77;;;;;;;;;;1039235;28;20064;-73
2023/08/28 00:39:41;;;;;;;1.90;1.38;;;;;;;;;;1038747;28;20021;-73
2023/08/28 00:40:13;;;;;;;0.65;0.55;;;;;;;;;;1035644;28;20092;-73
2023/08/28 00:40:44;;;;;;;2.25;1.77;;;;;;;;;;1035812;28;20030;-73
2023/08/28 00:41:14;;;;;;;0.15;0.15;;;;;;;;;;1035814;28;20022;-73
2023/08/28 00:41:45;;;;;;;2.92;1.23;;;;;;;;;;1036067;28;20026;-73
2023/08/28 00:42:15;;;;;;;0.00;0.00;;;;;;;;;;1035913;28;20034;-73
2023/08/28 00:42:45;;;;;;;0.13;0.13;;;;;;;;;;1035919;28;20029;-73
2023/08/28 00:43:16;;;;;;;0.10;0.10;;;;;;;;;;1035984;28;20034;-73
2023/08/28 00:43:47;;;;;;;0.52;0.47;;;;;;;;;;1035596;28;20021;-73
2023/08/28 00:44:17;;;;;;;0.28;0.28;;;;;;;;;;1035571;28;20073;-73
2023/08/28 00:44:48;;;;;;;1.27;1.00;;;;;;;;;;1035473;28;20044;-73
2023/08/28 00:45:18;;;;;;;0.45;0.45;;;;;;;;;;1035664;28;20030;-74
2023/08/28 00:45:49;;;;;;;0.52;0.22;;;;;;;;;;1035795;28;20018;-73
2023/08/28 00:46:19;;;;;;;0.65;0.65;;;;;;;;;;1036010;28;20032;-73
2023/08/28 00:46:50;;;;;;;0.00;0.00;;;;;;;;;;1035922;28;20068;-74
2023/08/28 00:47:20;;;;;;;0.10;0.10;;;;;;;;;;1036010;28;20026;-73
2023/08/28 00:47:51;;;;;;;0.38;0.32;;;;;;;;;;1035926;28;20030;-73
2023/08/28 00:48:22;;;;;;;0.00;0.00;;;;;;;;;;1035959;28;20022;-74
2023/08/28 00:48:52;;;;;;;0.10;0.10;;;;;;;;;;1035945;28;20034;-73
2023/08/28 00:49:22;;;;;;;0.03;0.03;;;;;;;;;;1035118;28;20041;-74
2023/08/28 00:49:53;;;;;;;0.03;0.03;;;;;;;;;;1035665;28;20466;-73
2023/08/28 00:50:23;;;;;;;1.40;1.15;;;;;;;;;;1036001;28;20026;-73
2023/08/28 00:50:54;;;;;;;0.55;0.55;;;;;;;;;;1039218;28;20029;-73
2023/08/28 00:51:25;;;;;;;0.00;0.00;;;;;;;;;;1039802;28;20063;-73
2023/08/28 00:51:56;;;;;;;0.00;0.00;;;;;;;;;;1039647;28;20064;-73
2023/08/28 00:52:27;;;;;;;1.45;0.85;;;;;;;;;;1039520;28;20060;-73
2023/08/28 00:52:57;;;;;;;0.00;0.00;;;;;;;;;;1035587;28;20109;-73
2023/08/28 00:53:27;;;;;;;0.35;0.35;;;;;;;;;;1036091;28;20037;-73
2023/08/28 00:53:58;;;;;;;1.20;0.50;;;;;;;;;;1035795;28;20430;-73
2023/08/28 00:54:30;;;;;;;0.93;0.75;;;;;;;;;;1035938;28;20018;-74
2023/08/28 00:55:00;;;;;;;0.30;0.30;;;;;;;;;;1043182;28;20477;-74
2023/08/28 00:55:32;;;;;;;0.25;0.25;;;;;;;;;;1043926;28;20036;-73
2023/08/28 00:56:03;;;;;;;0.45;0.45;;;;;;;;;;1043563;28;20020;-74
2023/08/28 00:56:33;;;;;;;0.00;0.00;;;;;;;;;;1043640;28;20035;-73
2023/08/28 00:57:04;;;;;;;0.00;0.00;;;;;;;;;;1039760;28;20029;-73
2023/08/28 00:57:35;;;;;;;0.00;0.00;;;;;;;;;;1040016;28;20025;-73
2023/08/28 00:58:05;;;;;;;0.55;0.22;;;;;;;;;;1038682;28;20040;-74
2023/08/28 00:58:36;;;;;;;13.15;0.43;;;;;;;;;;1039784;28;20025;-73
2023/08/28 00:59:06;;;;;;;0.65;0.60;;;;;;;;;;1039839;28;20088;-73
2023/08/28 00:59:37;;;;;;;0.00;0.00;;;;;;;;;;1036470;28;20026;-73
2023/08/28 01:00:10;;;;;;;1.75;1.38;;;;;;;;;;1035582;28;20072;-73
2023/08/28 01:00:41;;;;;;;0.15;0.15;;;;;;;;;;1039431;28;20021;-73
2023/08/28 01:01:11;;;;;;;0.47;0.47;;;;;;;;;;1035363;28;20026;-73
2023/08/28 01:01:42;;;;;;;0.10;0.10;;;;;;;;;;1035686;28;20396;-73
2023/08/28 01:02:13;;;;;;;0.63;0.57;;;;;;;;;;1035460;28;20022;-73
2023/08/28 01:02:43;;;;;;;0.00;0.00;;;;;;;;;;1034093;28;20060;-73
2023/08/28 01:03:14;;;;;;;4.20;0.55;;;;;;;;;;1035483;28;20030;-73
2023/08/28 01:03:44;;;;;;;0.00;0.00;;;;;;;;;;1035382;28;20033;-73
2023/08/28 01:04:15;;;;;;;0.00;0.00;;;;;;;;;;1038944;28;20519;-73
2023/08/28 01:04:45;;;;;;;0.00;0.00;;;;;;;;;;1035518;28;20135;-73
2023/08/28 01:05:16;;;;;;;0.00;0.00;;;;;;;;;;1031879;28;20113;-74
2023/08/28 01:05:55;;;;;;;0.20;0.20;;;;;;;;;;1034705;28;20033;-73
2023/08/28 01:06:58;;;;;;;0.00;0.00;;;;;;;;;;1036160;28;20425;-73
2023/08/28 01:07:34;;;;;;;0.00;0.00;;;;;;;;;;1027218;28;20030;-73
2023/08/28 01:08:11;;;;;;;0.50;0.38;;;;;;;;;;1023052;28;20050;-73
2023/08/28 01:08:44;;;;;;;0.00;0.00;;;;;;;;;;1029507;28;20035;-73
2023/08/28 01:09:30;;;;;;;0.52;0.52;;;;;;;;;;1031462;28;20033;-73
2023/08/28 01:10:00;;;;;;;0.05;0.05;;;;;;;;;;1032726;28;20026;-73
2023/08/28 01:10:45;;;;;;;0.00;0.00;;;;;;;;;;1035969;28;20386;-73
2023/08/28 01:11:24;;;;;;;0.20;0.20;;;;;;;;;;1039444;28;20037;-73
2023/08/28 01:12:03;;;;;;;0.20;0.20;;;;;;;;;;1037785;28;20044;-74
2023/08/28 01:12:57;;;;;;;0.00;0.00;;;;;;;;;;1039077;28;20049;-73
2023/08/28 01:13:31;;;;;;;0.80;0.80;;;;;;;;;;1033139;28;20121;-73
2023/08/28 01:14:28;;;;;;;0.45;0.45;;;;;;;;;;1035904;28;20033;-73
2023/08/28 01:15:02;;;;;;;0.10;0.10;;;;;;;;;;1034142;28;20076;-74
2023/08/28 01:15:33;;;;;;;0.00;0.00;;;;;;;;;;1040039;28;20025;-73
2023/08/28 01:16:04;;;;;;;0.00;0.00;;;;;;;;;;1039822;28;20029;-73
2023/08/28 01:16:36;;;;;;;0.10;0.10;;;;;;;;;;1039505;28;20561;-73
2023/08/28 01:17:08;;;;;;;0.17;0.15;;;;;;;;;;1039284;28;20044;-73
2023/08/28 01:17:40;;;;;;;0.40;0.30;;;;;;;;;;1036109;28;20030;-73
2023/08/28 01:18:10;;;;;;;0.98;0.20;;;;;;;;;;1039803;28;20033;-73
2023/08/28 01:18:41;;;;;;;0.75;0.75;;;;;;;;;;1039707;28;20474;-73
2023/08/28 01:19:18;;;;;;;0.05;0.05;;;;;;;;;;1039939;28;20025;-73
2023/08/28 01:19:49;;;;;;;0.00;0.00;;;;;;;;;;1035067;28;20145;-73
2023/08/28 01:20:19;;;;;;;0.00;0.00;;;;;;;;;;1032952;28;20146;-73
2023/08/28 01:20:50;;;;;;;0.45;0.32;;;;;;;;;;1035909;28;20026;-73
2023/08/28 01:21:20;;;;;;;0.03;0.03;;;;;;;;;;1036309;28;20029;-73
2023/08/28 01:21:53;;;;;;;0.68;0.65;;;;;;;;;;1036352;28;20038;-73
2023/08/28 01:22:40;;;;;;;0.65;0.65;;;;;;;;;;1036146;28;20026;-73
2023/08/28 01:23:28;;;;;;;0.00;0.00;;;;;;;;;;1039758;28;20512;-73
2023/08/28 01:24:00;;;;;;;4.13;2.42;;;;;;;;;;1038839;28;20338;-74
2023/08/28 01:24:30;;;;;;;0.20;0.20;;;;;;;;;;1042711;28;20540;-73
2023/08/28 01:25:10;;;;;;;1.17;1.08;;;;;;;;;;1041361;28;20106;-73
2023/08/28 01:25:41;;;;;;;0.00;0.00;;;;;;;;;;1036580;28;20473;-73
2023/08/28 01:26:11;;;;;;;0.22;0.22;;;;;;;;;;1039920;28;20033;-73
2023/08/28 01:26:42;;;;;;;0.00;0.00;;;;;;;;;;1040168;28;20473;-73
2023/08/28 01:27:13;;;;;;;0.00;0.00;;;;;;;;;;1040319;28;20064;-73
2023/08/28 01:27:43;;;;;;;0.25;0.25;;;;;;;;;;1040162;28;20037;-74
2023/08/28 01:28:14;;;;;;;0.63;0.63;;;;;;;;;;1036146;28;20026;-73
2023/08/28 01:28:44;;;;;;;0.00;0.00;;;;;;;;;;1036188;28;20029;-73
2023/08/28 01:29:15;;;;;;;0.60;0.60;;;;;;;;;;1036158;28;20474;-73
2023/08/28 01:29:45;;;;;;;0.08;0.08;;;;;;;;;;1036681;28;20030;-73
2023/08/28 01:30:16;;;;;;;0.15;0.15;;;;;;;;;;1036361;28;20127;-73
2023/08/28 01:30:48;;;;;;;1.65;0.43;;;;;;;;;;1036326;28;20436;-73
2023/08/28 01:31:19;;;;;;;0.65;0.65;;;;;;;;;;1036532;28;20034;-73
2023/08/28 01:31:49;;;;;;;0.10;0.10;;;;;;;;;;1036669;28;20087;-74
2023/08/28 01:32:20;;;;;;;0.00;0.00;;;;;;;;;;1035529;28;20060;-73
2023/08/28 01:32:50;;;;;;;0.10;0.10;;;;;;;;;;1035412;28;20014;-73
2023/08/28 01:33:21;;;;;;;0.00;0.00;;;;;;;;;;1036260;28;20026;-73
2023/08/28 01:33:52;;;;;;;0.05;0.05;;;;;;;;;;1035963;28;20022;-73
2023/08/28 01:34:23;;;;;;;1.08;0.35;;;;;;;;;;1036294;28;20088;-73
2023/08/28 01:34:53;;;;;;;0.05;0.05;;;;;;;;;;1036502;28;20034;-73
2023/08/28 01:35:24;;;;;;;2.38;1.35;;;;;;;;;;1037157;28;20026;-73
2023/08/28 01:36:21;;;;;;;0.10;0.10;;;;;;;;;;1040354;28;20029;-73
2023/08/28 01:36:53;;;;;;;0.20;0.20;;;;;;;;;;1031931;28;20042;-73
2023/08/28 01:37:25;;;;;;;0.75;0.47;;;;;;;;;;1036164;28;20052;-72
2023/08/28 01:37:55;;;;;;;0.10;0.10;;;;;;;;;;1032031;28;20029;-72
2023/08/28 01:38:30;;;;;;;14.52;0.98;;;;;;;;;;1032003;28;20109;-73
2023/08/28 01:39:07;;;;;;;0.47;0.47;;;;;;;;;;1031889;28;20072;-73
2023/08/28 01:39:41;;;;;;;0.10;0.10;;;;;;;;;;1034325;28;20058;-73
2023/08/28 01:40:14;;;;;;;0.38;0.35;;;;;;;;;;1040110;28;20017;-72
2023/08/28 01:41:06;;;;;;;1.83;1.60;;;;;;;;;;1038575;28;20025;-73
2023/08/28 01:41:38;;;;;;;0.28;0.28;;;;;;;;;;1036714;28;20080;-73
2023/08/28 01:42:09;;;;;;;0.10;0.10;;;;;;;;;;1036213;28;20495;-73
2023/08/28 01:42:41;;;;;;;2.75;1.17;;;;;;;;;;1036128;28;20079;-73
2023/08/28 01:43:12;;;;;;;3.42;1.00;;;;;;;;;;1035954;28;20573;-73
2023/08/28 01:43:52;;;;;;;1.55;0.55;;;;;;;;;;1035685;28;20026;-73
2023/08/28 01:44:24;;;;;;;0.08;0.08;;;;;;;;;;1035759;28;20196;-73
2023/08/28 01:44:55;;;;;;;0.00;0.00;;;;;;;;;;1036004;28;20032;-73
2023/08/28 01:45:26;;;;;;;0.00;0.00;;;;;;;;;;1036251;28;20033;-73
2023/08/28 01:45:57;;;;;;;1.55;0.68;;;;;;;;;;1035715;28;20121;-73
2023/08/28 01:46:33;;;;;;;8.20;0.32;;;;;;;;;;1038256;28;20112;-73
2023/08/28 01:47:04;;;;;;;0.10;0.10;;;;;;;;;;1039111;28;20025;-72
2023/08/28 01:47:34;;;;;;;0.00;0.00;;;;;;;;;;1037516;28;20021;-72
2023/08/28 01:48:06;;;;;;;0.22;0.22;;;;;;;;;;1037129;28;20512;-73
2023/08/28 01:48:41;;;;;;;0.47;0.45;;;;;;;;;;1036465;28;20502;-73
2023/08/28 01:49:11;;;;;;;0.00;0.00;;;;;;;;;;1039793;28;20021;-73
2023/08/28 01:49:42;;;;;;;1.23;0.73;;;;;;;;;;1040203;28;20514;-73
2023/08/28 01:50:12;;;;;;;0.00;0.00;;;;;;;;;;1040236;28;20021;-73
2023/08/28 01:50:42;;;;;;;0.30;0.25;;;;;;;;;;1037663;28;20044;-73
2023/08/28 01:51:13;;;;;;;0.10;0.10;;;;;;;;;;1035569;28;20026;-73
2023/08/28 01:51:43;;;;;;;1.05;0.75;;;;;;;;;;1036117;28;20433;-73
2023/08/28 01:52:14;;;;;;;0.00;0.00;;;;;;;;;;1035876;28;20117;-73
2023/08/28 01:52:44;;;;;;;0.10;0.10;;;;;;;;;;1036005;28;20029;-73
2023/08/28 01:53:15;;;;;;;0.20;0.20;;;;;;;;;;1036381;28;20022;-73
2023/08/28 01:53:49;;;;;;;1.90;0.57;;;;;;;;;;1035980;28;20036;-73
2023/08/28 01:54:19;;;;;;;0.52;0.52;;;;;;;;;;1035721;28;20033;-73
2023/08/28 01:54:50;;;;;;;0.45;0.45;;;;;;;;;;1036275;28;20029;-72
2023/08/28 01:55:36;;;;;;;0.52;0.52;;;;;;;;;;1035397;28;20026;-72
2023/08/28 01:56:09;;;;;;;0.00;0.00;;;;;;;;;;1036007;28;20378;-73
2023/08/28 01:56:40;;;;;;;0.40;0.40;;;;;;;;;;1035877;28;20412;-73
2023/08/28 01:57:10;;;;;;;2.20;0.57;;;;;;;;;;1035996;28;20033;-73
2023/08/28 01:57:40;;;;;;;0.40;0.40;;;;;;;;;;1034625;28;20073;-72
2023/08/28 01:58:11;;;;;;;0.10;0.10;;;;;;;;;;1035816;28;20026;-72
2023/08/28 01:58:42;;;;;;;4.32;1.17;;;;;;;;;;1027732;28;20033;-73
2023/08/28 01:59:14;;;;;;;1.40;1.30;;;;;;;;;;1036097;28;20599;-73
2023/08/28 01:59:44;;;;;;;1.52;1.23;;;;;;;;;;1039398;28;20025;-73
2023/08/28 02:00:15;;;;;;;0.20;0.20;;;;;;;;;;1041967;28;20033;-73
2023/08/28 02:00:45;;;;;;;0.00;0.00;;;;;;;;;;1039689;28;20025;-73
2023/08/28 02:01:16;;;;;;;3.72;0.90;;;;;;;;;;1035912;28;20026;-73
2023/08/28 02:01:46;;;;;;;0.13;0.13;;;;;;;;;;1035504;28;20087;-73
2023/08/28 02:02:17;;;;;;;0.10;0.10;;;;;;;;;;1031348;28;20030;-73
2023/08/28 02:02:47;;;;;;;0.20;0.10;;;;;;;;;;1031386;28;20041;-73
2023/08/28 02:03:18;;;;;;;1.55;1.38;;;;;;;;;;1035953;28;20041;-73
2023/08/28 02:03:48;;;;;;;1.17;0.52;;;;;;;;;;1035851;28;20053;-73
2023/08/28 02:04:19;;;;;;;0.10;0.10;;;;;;;;;;1031411;28;20471;-72
2023/08/28 02:04:49;;;;;;;2.72;0.43;;;;;;;;;;1031887;28;20113;-72
2023/08/28 02:05:20;;;;;;;1.80;1.65;;;;;;;;;;1031889;28;20125;-72
2023/08/28 02:05:50;;;;;;;0.65;0.65;;;;;;;;;;1034432;28;20081;-73
2023/08/28 02:06:21;;;;;;;0.98;0.93;;;;;;;;;;1039691;28;20112;-71
2023/08/28 02:06:51;;;;;;;0.15;0.15;;;;;;;;;;1039943;28;20026;-73
2023/08/28 02:07:21;;;;;;;0.00;0.00;;;;;;;;;;1040900;28;20460;-73
2023/08/28 02:07:52;;;;;;;0.00;0.00;;;;;;;;;;1039997;28;20025;-73
2023/08/28 02:08:22;;;;;;;0.00;0.00;;;;;;;;;;1038585;28;20030;-72
2023/08/28 02:08:53;;;;;;;0.20;0.20;;;;;;;;;;1040091;28;20045;-73
2023/08/28 02:09:23;;;;;;;0.28;0.28;;;;;;;;;;1039793;28;20552;-73
2023/08/28 02:09:54;;;;;;;0.20;0.13;;;;;;;;;;1040054;28;20498;-73
2023/08/28 02:10:24;;;;;;;0.40;0.25;;;;;;;;;;1035893;28;20025;-72
2023/08/28 02:10:55;;;;;;;1.45;1.17;;;;;;;;;;1035762;28;20090;-73
2023/08/28 02:11:25;;;;;;;0.00;0.00;;;;;;;;;;1036626;28;20125;-72
2023/08/28 02:11:55;;;;;;;4.07;1.45;;;;;;;;;;1040307;28;20082;-73
2023/08/28 02:12:26;;;;;;;0.00;0.00;;;;;;;;;;1040127;28;20489;-73
2023/08/28 02:12:56;;;;;;;2.45;1.52;;;;;;;;;;1036954;28;20030;-73
2023/08/28 02:13:27;;;;;;;0.77;0.60;;;;;;;;;;1036183;28;20030;-73
2023/08/28 02:13:57;;;;;;;0.00;0.00;;;;;;;;;;1034715;28;20075;-73
2023/08/28 02:14:28;;;;;;;0.43;0.43;;;;;;;;;;1038198;28;20191;-73
2023/08/28 02:14:58;;;;;;;0.28;0.28;;;;;;;;;;1035893;28;20112;-73
2023/08/28 02:15:29;;;;;;;1.48;0.60;;;;;;;;;;1035691;28;20040;-72
2023/08/28 02:16:02;;;;;;;0.95;0.95;;;;;;;;;;1035392;28;20045;-73
2023/08/28 02:16:34;;;;;;;0.77;0.75;;;;;;;;;;1039361;28;20065;-73
2023/08/28 02:17:04;;;;;;;1.75;1.05;;;;;;;;;;1035610;28;20116;-73
2023/08/28 02:17:35;;;;;;;0.08;0.08;;;;;;;;;;1035911;28;20028;-72
2023/08/28 02:18:06;;;;;;;0.30;0.30;;;;;;;;;;1035834;28;20036;-72
2023/08/28 02:18:36;;;;;;;0.10;0.10;;;;;;;;;;1038014;28;20036;-72
2023/08/28 02:19:07;;;;;;;0.10;0.10;;;;;;;;;;1040293;28;20029;-73
2023/08/28 02:19:37;;;;;;;0.20;0.20;;;;;;;;;;1040609;28;20555;-73
2023/08/28 02:20:11;;;;;;;0.00;0.00;;;;;;;;;;1039625;28;20029;-73
2023/08/28 02:20:43;;;;;;;1.15;0.43;;;;;;;;;;1040703;28;20031;-73
2023/08/28 02:21:13;;;;;;;0.00;0.00;;;;;;;;;;1039318;28;20021;-72
2023/08/28 02:21:43;;;;;;;0.32;0.32;;;;;;;;;;1036055;28;20112;-72
2023/08/28 02:22:14;;;;;;;0.00;0.00;;;;;;;;;;1036030;28;20112;-73
2023/08/28 02:22:44;;;;;;;0.00;0.00;;;;;;;;;;1037978;28;20024;-75
2023/08/28 02:23:15;;;;;;;0.10;0.10;;;;;;;;;;1036197;28;20034;-75
2023/08/28 02:23:45;;;;;;;0.00;0.00;;;;;;;;;;1036162;28;20010;-72
2023/08/28 02:24:16;;;;;;;1.00;0.70;;;;;;;;;;1035561;28;20025;-74
2023/08/28 02:24:46;;;;;;;0.00;0.00;;;;;;;;;;1034607;28;20483;-73
2023/08/28 02:25:22;;;;;;;2.20;0.38;;;;;;;;;;1036142;28;20034;-74
2023/08/28 02:25:53;;;;;;;0.03;0.03;;;;;;;;;;1035521;28;20026;-72
2023/08/28 02:26:24;;;;;;;0.00;0.00;;;;;;;;;;1034767;28;20029;-74
2023/08/28 02:26:55;;;;;;;0.00;0.00;;;;;;;;;;1035498;28;20033;-74
2023/08/28 02:27:25;;;;;;;0.00;0.00;;;;;;;;;;1033819;28;20040;-74
2023/08/28 02:27:57;;;;;;;0.00;0.00;;;;;;;;;;1036991;28;20473;-72
2023/08/28 02:28:28;;;;;;;2.65;1.25;;;;;;;;;;1037256;28;20497;-73
2023/08/28 02:28:58;;;;;;;0.47;0.47;;;;;;;;;;1036591;28;20029;-72
2023/08/28 02:29:29;;;;;;;5.65;1.40;;;;;;;;;;1038184;28;20030;-74
2023/08/28 02:29:59;;;;;;;0.90;0.90;;;;;;;;;;1037074;28;20394;-73
2023/08/28 02:30:29;;;;;;;0.08;0.03;;;;;;;;;;1036467;28;20030;-73
2023/08/28 02:31:00;;;;;;;0.00;0.00;;;;;;;;;;1037750;28;20076;-74
2023/08/28 02:31:30;;;;;;;0.20;0.20;;;;;;;;;;1037227;28;20037;-73
2023/08/28 02:32:01;;;;;;;5.32;1.63;;;;;;;;;;1039072;28;20021;-73
2023/08/28 02:32:31;;;;;;;0.38;0.38;;;;;;;;;;1038964;28;20406;-73
2023/08/28 02:33:02;;;;;;;4.00;0.65;;;;;;;;;;1042990;28;20481;-73
2023/08/28 02:33:32;;;;;;;1.25;0.85;;;;;;;;;;1035649;28;20500;-73
2023/08/28 02:34:03;;;;;;;0.10;0.10;;;;;;;;;;1037995;28;20124;-72
2023/08/28 02:34:33;;;;;;;0.82;0.05;;;;;;;;;;1037622;28;20017;-72
2023/08/28 02:35:04;;;;;;;0.10;0.10;;;;;;;;;;1039599;28;20119;-74
2023/08/28 02:35:34;;;;;;;0.43;0.35;;;;;;;;;;1038041;28;20029;-73
2023/08/28 02:36:05;;;;;;;0.52;0.52;;;;;;;;;;1038088;28;20026;-73
2023/08/28 02:36:35;;;;;;;0.00;0.00;;;;;;;;;;1037894;28;20009;-72
2023/08/28 02:37:05;;;;;;;0.65;0.38;;;;;;;;;;1034116;28;20394;-73
2023/08/28 02:37:36;;;;;;;1.48;0.20;;;;;;;;;;1034868;28;20022;-73
2023/08/28 02:38:08;;;;;;;0.00;0.00;;;;;;;;;;1038618;28;20018;-74
2023/08/28 02:38:38;;;;;;;0.22;0.10;;;;;;;;;;1035675;28;20513;-73
2023/08/28 02:39:09;;;;;;;3.03;1.75;;;;;;;;;;1038047;28;20033;-72
2023/08/28 02:39:39;;;;;;;0.28;0.28;;;;;;;;;;1036078;28;20503;-72
2023/08/28 02:40:10;;;;;;;0.90;0.85;;;;;;;;;;1038498;28;20013;-72
2023/08/28 02:40:40;;;;;;;4.57;0.55;;;;;;;;;;1038587;28;20026;-73
2023/08/28 02:41:11;;;;;;;1.08;0.57;;;;;;;;;;1034597;28;20028;-73
2023/08/28 02:41:41;;;;;;;0.63;0.50;;;;;;;;;;1035709;28;20113;-72
2023/08/28 02:42:12;;;;;;;0.20;0.20;;;;;;;;;;1039395;28;20124;-73
2023/08/28 02:42:42;;;;;;;7.57;2.53;;;;;;;;;;1038793;28;20189;-73
2023/08/28 02:43:13;;;;;;;0.00;0.00;;;;;;;;;;1043323;28;20107;-73
2023/08/28 02:43:43;;;;;;;0.20;0.20;;;;;;;;;;1038916;28;20075;-73
2023/08/28 02:44:13;;;;;;;0.00;0.00;;;;;;;;;;1036722;28;20112;-73
2023/08/28 02:44:44;;;;;;;0.00;0.00;;;;;;;;;;1037089;28;20612;-73
2023/08/28 02:45:14;;;;;;;0.55;0.47;;;;;;;;;;1035485;28;20390;-73
2023/08/28 02:45:45;;;;;;;0.65;0.63;;;;;;;;;;1035302;28;20026;-73
2023/08/28 02:46:15;;;;;;;0.00;0.00;;;;;;;;;;1034863;28;20025;-73
2023/08/28 02:46:46;;;;;;;0.30;0.30;;;;;;;;;;1031204;28;20042;-73
2023/08/28 02:47:16;;;;;;;0.52;0.25;;;;;;;;;;1031604;28;20022;-72
2023/08/28 02:47:47;;;;;;;0.80;0.80;;;;;;;;;;1034921;28;20026;-73
2023/08/28 02:48:17;;;;;;;8.05;1.65;;;;;;;;;;1035444;28;20137;-73
2023/08/28 02:48:47;;;;;;;0.00;0.00;;;;;;;;;;1035500;28;20045;-72
2023/08/28 02:49:18;;;;;;;0.47;0.47;;;;;;;;;;1035025;28;20084;-73
2023/08/28 02:49:48;;;;;;;0.47;0.30;;;;;;;;;;1031216;28;20030;-73
2023/08/28 02:50:19;;;;;;;2.55;0.77;;;;;;;;;;1031247;28;20071;-73
2023/08/28 02:50:50;;;;;;;0.47;0.47;;;;;;;;;;1031317;28;20037;-73
2023/08/28 02:51:20;;;;;;;0.20;0.20;;;;;;;;;;1035258;28;20088;-73
2023/08/28 02:51:50;;;;;;;0.00;0.00;;;;;;;;;;1035595;28;20034;-73
2023/08/28 02:52:21;;;;;;;0.60;0.60;;;;;;;;;;1035422;28;20033;-74
2023/08/28 02:52:51;;;;;;;0.20;0.10;;;;;;;;;;1035357;28;20030;-74
2023/08/28 02:53:22;;;;;;;0.75;0.75;;;;;;;;;;1035222;28;20097;-76
2023/08/28 02:53:52;;;;;;;0.00;0.00;;;;;;;;;;1035372;28;20386;-73
2023/08/28 02:54:23;;;;;;;0.30;0.30;;;;;;;;;;1037069;28;20418;-74
2023/08/28 02:54:53;;;;;;;5.13;0.65;;;;;;;;;;1035565;28;20029;-73
2023/08/28 02:55:24;;;;;;;0.38;0.20;;;;;;;;;;1034641;28;20028;-74
2023/08/28 02:56:17;;;;;;;0.25;0.25;;;;;;;;;;1035542;28;20026;-73
2023/08/28 02:56:48;;;;;;;0.25;0.20;;;;;;;;;;1034882;28;20355;-75
2023/08/28 02:57:18;;;;;;;0.30;0.30;;;;;;;;;;1035866;28;20033;-74
2023/08/28 02:57:49;;;;;;;0.20;0.20;;;;;;;;;;1039009;28;20040;-73
2023/08/28 02:58:19;;;;;;;0.17;0.17;;;;;;;;;;1039052;28;20029;-74
2023/08/28 02:58:51;;;;;;;2.80;1.17;;;;;;;;;;1030261;28;20026;-74
2023/08/28 02:59:21;;;;;;;0.35;0.35;;;;;;;;;;1033975;28;20033;-73
2023/08/28 02:59:52;;;;;;;0.70;0.47;;;;;;;;;;1035583;28;20120;-72
2023/08/28 03:00:22;;;;;;;0.22;0.22;;;;;;;;;;1035145;28;20112;-74
2023/08/28 03:00:53;;;;;;;0.00;0.00;;;;;;;;;;1035706;28;20026;-76
2023/08/28 03:01:23;;;;;;;0.13;0.13;;;;;;;;;;1035235;28;20034;-74
2023/08/28 03:01:54;;;;;;;0.00;0.00;;;;;;;;;;1035866;28;20363;-73
2023/08/28 03:02:24;;;;;;;0.00;0.00;;;;;;;;;;1035788;28;20040;-73
2023/08/28 03:02:55;;;;;;;1.02;0.55;;;;;;;;;;1034724;28;20018;-73
2023/08/28 03:03:25;;;;;;;2.13;0.85;;;;;;;;;;1034806;28;20076;-73
2023/08/28 03:03:56;;;;;;;0.55;0.52;;;;;;;;;;1035086;28;20033;-73
2023/08/28 03:04:27;;;;;;;1.13;0.25;;;;;;;;;;1034845;28;20044;-73
2023/08/28 03:04:57;;;;;;;0.10;0.10;;;;;;;;;;1035756;28;20057;-73
2023/08/28 03:05:28;;;;;;;6.40;1.38;;;;;;;;;;1039079;28;20120;-72
2023/08/28 03:05:58;;;;;;;0.88;0.15;;;;;;;;;;1036207;28;20150;-73
2023/08/28 03:06:28;;;;;;;0.05;0.05;;;;;;;;;;1035079;28;20028;-73
2023/08/28 03:06:59;;;;;;;0.00;0.00;;;;;;;;;;1035644;28;20025;-73
2023/08/28 03:07:30;;;;;;;0.98;0.85;;;;;;;;;;1035175;28;20117;-72
2023/08/28 03:08:00;;;;;;;0.15;0.13;;;;;;;;;;1035849;28;20029;-73
2023/08/28 03:08:30;;;;;;;0.10;0.10;;;;;;;;;;1035963;28;20025;-71
2023/08/28 03:09:01;;;;;;;4.57;0.90;;;;;;;;;;1034874;28;20581;-73
2023/08/28 03:09:32;;;;;;;0.30;0.30;;;;;;;;;;1034687;28;20025;-73